Time;durP1;ratioP1;P1;durP2;ratioP2;P2;SDS_P1;SDS_P2;PMS_P1;PMS_P2;Temp;Humidity;BMP_temperature;BMP_pressure;BME280_temperature;BME280_humidity;BME280_pressure;Samples;Min_cycle;Max_cycle;Signal;HPM_P1;HPM_P2
2022/05/19 00:01:23;;;;;;;13.35;7.70;;;21.40;1.00;;;;;;5053781;28;20217;-64
2022/05/19 00:03:49;;;;;;;13.57;7.63;;;21.50;99.90;;;;;;5053246;28;20216;-66
2022/05/19 00:06:15;;;;;;;13.55;9.88;;;21.60;77.80;;;;;;5053490;28;20173;-66
2022/05/19 00:08:41;;;;;;;12.35;8.10;;;21.60;24.60;;;;;;5053317;28;20204;-66
2022/05/19 00:11:16;;;;;;;14.23;8.07;;;21.60;1.00;;;;;;5053487;28;20177;-65
2022/05/19 00:13:41;;;;;;;9.68;6.75;;;21.60;1.00;;;;;;5053645;28;20177;-64
2022/05/19 00:16:08;;;;;;;8.45;5.82;;;21.60;1.00;;;;;;5053574;28;20549;-64
2022/05/19 00:18:35;;;;;;;13.75;5.82;;;21.60;1.00;;;;;;5053178;28;20278;-65
2022/05/19 00:21:01;;;;;;;10.23;5.25;;;21.60;24.90;;;;;;5053270;28;20266;-65
2022/05/19 00:23:26;;;;;;;5.72;4.95;;;21.70;1.00;;;;;;5053377;28;20316;-65
2022/05/19 00:25:52;;;;;;;8.57;5.32;;;21.80;1.00;;;;;;5053387;28;20629;-64
2022/05/19 00:28:18;;;;;;;5.28;4.68;;;21.80;99.90;;;;;;5053124;28;20177;-65
2022/05/19 00:30:44;;;;;;;7.68;4.90;;;21.90;99.90;;;;;;5053477;28;20173;-65
2022/05/19 00:33:11;;;;;;;6.05;5.10;;;21.90;99.90;;;;;;5052944;28;20580;-64
2022/05/19 00:35:38;;;;;;;8.35;5.25;;;22.00;99.90;;;;;;5053204;28;20165;-64
2022/05/19 00:38:05;;;;;;;6.97;5.30;;;22.10;1.00;;;;;;5053251;28;20165;-66
2022/05/19 00:40:31;;;;;;;7.35;5.10;;;22.00;1.00;;;;;;5053366;28;20173;-64
2022/05/19 00:42:56;;;;;;;6.25;5.00;;;22.10;99.90;;;;;;5053030;28;20213;-65
2022/05/19 00:45:38;;;;;;;6.28;5.30;;;22.10;99.90;;;;;;5053237;28;20624;-64
2022/05/19 00:48:22;;;;;;;8.98;5.20;;;22.10;99.90;;;;;;5052631;28;20181;-64
2022/05/19 00:51:01;;;;;;;5.75;5.25;;;22.10;1.00;;;;;;5053286;28;20208;-64
2022/05/19 00:53:38;;;;;;;7.25;5.72;;;22.10;1.00;;;;;;5053073;28;20169;-64
2022/05/19 00:56:13;;;;;;;6.47;5.57;;;22.10;1.00;;;;;;5052959;28;20172;-64
2022/05/19 00:58:56;;;;;;;6.93;5.45;;;22.20;1.00;;;;;;5052898;28;20628;-65
2022/05/19 01:01:22;;;;;;;7.32;5.30;;;22.20;99.90;;;;;;5053071;28;20185;-64
2022/05/19 01:03:54;;;;;;;10.00;5.20;;;22.20;1.00;;;;;;5052498;28;20212;-64
2022/05/19 01:06:21;;;;;;;8.90;5.25;;;22.30;1.00;;;;;;5052872;28;20184;-65
2022/05/19 01:08:56;;;;;;;8.50;5.00;;;22.30;1.00;;;;;;5052814;28;20184;-65
2022/05/19 01:11:22;;;;;;;5.10;4.60;;;22.30;1.00;;;;;;5052929;28;20647;-65
2022/05/19 01:13:48;;;;;;;7.85;5.50;;;22.30;1.00;;;;;;5052858;28;20178;-65
2022/05/19 01:16:15;;;;;;;7.90;5.10;;;22.40;99.90;;;;;;5052905;28;20169;-65
2022/05/19 01:18:41;;;;;;;9.20;5.30;;;22.30;99.90;;;;;;5053022;28;20188;-66
2022/05/19 01:21:11;;;;;;;5.30;4.80;;;22.40;99.90;;;;;;5056732;28;20256;-64
2022/05/19 01:23:56;;;;;;;6.45;5.10;;;22.30;99.90;;;;;;5056501;28;20287;-65
2022/05/19 01:26:28;;;;;;;6.70;5.03;;;22.30;1.00;;;;;;5056688;28;20522;-65
2022/05/19 01:29:00;;;;;;;5.90;5.30;;;22.30;99.90;;;;;;5056499;28;20169;-65
2022/05/19 01:31:37;;;;;;;6.97;4.80;;;22.30;99.90;;;;;;5056175;28;20242;-65
2022/05/19 01:34:06;;;;;;;5.93;4.80;;;22.20;99.90;;;;;;5056504;28;20161;-65
2022/05/19 01:36:31;;;;;;;5.43;5.00;;;22.20;99.90;;;;;;5056613;28;20186;-65
2022/05/19 01:39:21;;;;;;;9.73;5.03;;;22.20;1.00;;;;;;5056545;28;20529;-64
2022/05/19 01:42:15;;;;;;;4.97;4.45;;;22.20;99.90;;;;;;5055007;28;20644;-65
2022/05/19 01:45:13;;;;;;;14.23;5.20;;;22.20;99.90;;;;;;5056400;28;20191;-64
2022/05/19 01:47:50;;;;;;;5.28;4.75;;;22.20;1.00;;;;;;5056075;28;20204;-65
2022/05/19 01:50:29;;;;;;;5.30;4.43;;;22.20;99.90;;;;;;5056333;28;20169;-65
2022/05/19 01:53:09;;;;;;;6.85;4.68;;;22.20;1.00;;;;;;5056092;28;20212;-65
2022/05/19 01:55:48;;;;;;;5.95;4.70;;;22.20;99.90;;;;;;5056075;28;20257;-63
2022/05/19 01:58:37;;;;;;;5.65;4.40;;;22.30;99.90;;;;;;5056178;28;20166;-64
2022/05/19 02:01:05;;;;;;;4.10;3.80;;;22.30;1.00;;;;;;5055363;28;20247;-65
2022/05/19 02:03:40;;;;;;;44.72;7.30;;;22.40;99.90;;;;;;5055913;28;20224;-64
2022/05/19 02:06:09;;;;;;;28.83;5.90;;;22.50;99.90;;;;;;5055888;28;20165;-64
2022/05/19 02:08:52;;;;;;;19.70;5.78;;;22.40;35.20;;;;;;5055767;28;20220;-65
2022/05/19 02:11:31;;;;;;;15.63;5.68;;;22.40;99.90;;;;;;5055838;28;20173;-64
2022/05/19 02:14:01;;;;;;;16.92;5.63;;;22.40;1.00;;;;;;5055906;28;20161;-65
2022/05/19 02:16:30;;;;;;;18.23;5.47;;;22.20;6.30;;;;;;5055429;28;20684;-65
2022/05/19 02:18:57;;;;;;;13.32;5.35;;;22.30;1.00;;;;;;5055766;28;20173;-64
2022/05/19 02:21:24;;;;;;;10.07;5.18;;;22.30;1.00;;;;;;5055604;28;20205;-64
2022/05/19 02:23:49;;;;;;;12.98;5.57;;;22.20;99.90;;;;;;5055913;28;20250;-64
2022/05/19 02:26:15;;;;;;;11.57;5.63;;;22.20;1.00;;;;;;5055553;28;20165;-64
2022/05/19 02:28:58;;;;;;;7.55;5.25;;;22.20;1.00;;;;;;5055491;28;20673;-64
2022/05/19 02:31:25;;;;;;;8.90;5.68;;;22.10;1.00;;;;;;5055230;28;20204;-64
2022/05/19 02:33:51;;;;;;;6.93;6.18;;;22.10;99.90;;;;;;5055473;28;20653;-63
2022/05/19 02:36:16;;;;;;;9.95;5.95;;;22.20;99.90;;;;;;5055361;28;20189;-64
2022/05/19 02:38:43;;;;;;;9.43;6.05;;;22.30;99.90;;;;;;5054112;28;20223;-65
2022/05/19 02:41:09;;;;;;;13.52;6.25;;;22.30;1.00;;;;;;5055485;28;20671;-64
2022/05/19 02:43:34;;;;;;;18.02;6.72;;;22.40;99.90;;;;;;5054733;28;20209;-64
2022/05/19 02:46:00;;;;;;;15.27;7.78;;;22.30;1.00;;;;;;5055320;28;20169;-64
2022/05/19 02:48:26;;;;;;;11.05;6.63;;;22.00;1.00;;;;;;5054965;28;20663;-64
2022/05/19 02:50:51;;;;;;;26.10;8.55;;;21.80;1.00;;;;;;5054834;28;20212;-64
2022/05/19 02:53:18;;;;;;;14.65;8.20;;;21.50;1.00;;;;;;5054687;28;20181;-64
2022/05/19 02:55:45;;;;;;;13.45;8.10;;;21.10;1.00;;;;;;5054580;28;20177;-65
2022/05/19 02:58:12;;;;;;;13.93;7.93;;;20.90;1.00;;;;;;5054539;28;20177;-65
2022/05/19 03:00:40;;;;;;;9.30;7.60;;;20.80;5.00;;;;;;5054713;28;20229;-65
2022/05/19 03:03:06;;;;;;;12.75;7.35;;;20.80;7.10;;;;;;5054880;28;20319;-65
2022/05/19 03:05:33;;;;;;;13.82;8.10;;;20.80;1.00;;;;;;5053628;28;20223;-65
2022/05/19 03:07:58;;;;;;;12.23;8.15;;;20.90;8.00;;;;;;5054161;28;20288;-64
2022/05/19 03:10:25;;;;;;;12.70;8.50;;;20.90;13.50;;;;;;5054701;28;20272;-64
2022/05/19 03:12:53;;;;;;;10.10;6.50;;;21.00;34.20;;;;;;5054379;28;20181;-64
2022/05/19 03:15:19;;;;;;;13.02;7.32;;;20.80;1.50;;;;;;5054836;28;20253;-65
2022/05/19 03:17:45;;;;;;;9.63;7.15;;;20.70;4.70;;;;;;5052668;28;20196;-65
2022/05/19 03:20:12;;;;;;;9.63;5.80;;;20.60;24.80;;;;;;5052652;28;20505;-64
2022/05/19 03:22:38;;;;;;;9.05;7.03;;;20.40;8.60;;;;;;5053926;28;20197;-64
2022/05/19 03:25:05;;;;;;;9.27;6.65;;;20.30;30.80;;;;;;5054479;28;20165;-64
2022/05/19 03:27:31;;;;;;;9.38;7.53;;;20.30;37.30;;;;;;5053272;28;20169;-64
2022/05/19 03:29:57;;;;;;;4.97;4.28;;;20.20;39.40;;;;;;5054114;28;20648;-63
2022/05/19 03:32:23;;;;;;;4.20;3.80;;;20.00;10.90;;;;;;5053975;28;20208;-63
2022/05/19 03:34:48;;;;;;;4.53;4.10;;;19.90;1.00;;;;;;5052647;28;20284;-64
2022/05/19 03:37:14;;;;;;;5.17;3.87;;;19.80;8.70;;;;;;5053978;28;20529;-63
2022/05/19 03:39:40;;;;;;;4.53;4.13;;;19.80;15.20;;;;;;5052949;28;20177;-63
2022/05/19 03:42:07;;;;;;;6.23;4.80;;;19.70;20.10;;;;;;5053059;28;20169;-64
2022/05/19 03:44:34;;;;;;;6.33;5.00;;;19.60;34.00;;;;;;5053117;28;20663;-65
2022/05/19 03:47:01;;;;;;;5.47;4.87;;;19.60;47.10;;;;;;5053163;28;20192;-65
2022/05/19 03:49:26;;;;;;;9.80;6.20;;;19.40;64.70;;;;;;5053055;28;20529;-65
2022/05/19 03:51:52;;;;;;;7.07;5.83;;;19.40;86.30;;;;;;5053652;28;20173;-63
2022/05/19 03:54:18;;;;;;;9.00;4.70;;;19.30;90.40;;;;;;5052754;28;20169;-64
2022/05/19 03:56:44;;;;;;;6.33;5.70;;;19.30;96.00;;;;;;5053416;28;20169;-64
2022/05/19 03:59:10;;;;;;;8.13;5.50;;;19.30;99.90;;;;;;5052472;28;20583;-64
2022/05/19 04:01:35;;;;;;;5.40;4.93;;;19.30;99.90;;;;;;5053135;28;20177;-64
2022/05/19 04:04:02;;;;;;;6.13;5.57;;;19.30;99.90;;;;;;5053470;28;20213;-65
2022/05/19 04:06:28;;;;;;;9.77;6.17;;;19.30;99.90;;;;;;5053393;28;20196;-64
2022/05/19 04:08:53;;;;;;;8.27;6.47;;;19.20;93.80;;;;;;5053237;28;20529;-64
2022/05/19 04:11:19;;;;;;;7.40;6.50;;;19.30;99.90;;;;;;5051600;28;20273;-65
2022/05/19 04:13:45;;;;;;;8.45;6.68;;;19.40;99.90;;;;;;5052274;28;20226;-64
2022/05/19 04:16:10;;;;;;;11.65;6.82;;;19.30;99.90;;;;;;5052650;28;20173;-64
2022/05/19 04:18:37;;;;;;;10.25;7.22;;;19.30;99.90;;;;;;5052432;28;20211;-64
2022/05/19 04:21:03;;;;;;;13.13;7.20;;;19.30;99.90;;;;;;5052507;28;20166;-64
2022/05/19 04:23:29;;;;;;;8.67;7.07;;;19.20;99.90;;;;;;5050752;28;20714;-64
2022/05/19 04:25:55;;;;;;;14.50;7.90;;;19.10;99.90;;;;;;5052474;28;20193;-64
2022/05/19 04:28:20;;;;;;;10.97;7.70;;;19.10;99.90;;;;;;5052731;28;20687;-64
2022/05/19 04:30:46;;;;;;;9.93;7.67;;;19.10;99.90;;;;;;5052315;28;20172;-65
2022/05/19 04:33:12;;;;;;;13.53;9.57;;;19.20;99.90;;;;;;5052298;28;20670;-64
2022/05/19 04:35:39;;;;;;;18.40;10.60;;;19.20;99.90;;;;;;5051294;28;20571;-65
2022/05/19 04:38:16;;;;;;;19.73;12.87;;;19.10;99.90;;;;;;5052467;28;20188;-64
2022/05/19 04:40:47;;;;;;;25.73;15.17;;;19.10;99.90;;;;;;5052283;28;20211;-64
2022/05/19 04:43:15;;;;;;;24.03;14.50;;;19.10;99.90;;;;;;5052123;28;20212;-64
2022/05/19 04:45:41;;;;;;;20.17;13.83;;;19.10;99.90;;;;;;5052649;28;20176;-63
2022/05/19 04:48:07;;;;;;;21.17;14.40;;;19.10;99.90;;;;;;5052157;28;20176;-64
2022/05/19 04:50:32;;;;;;;20.13;13.57;;;19.20;99.90;;;;;;5052575;28;20179;-64
2022/05/19 04:52:58;;;;;;;23.17;14.57;;;19.20;99.90;;;;;;5051905;28;20563;-64
2022/05/19 04:55:25;;;;;;;21.63;13.47;;;19.30;99.90;;;;;;5055444;28;20180;-64
2022/05/19 04:57:51;;;;;;;19.30;11.77;;;19.40;99.90;;;;;;5056183;28;20164;-64
2022/05/19 05:00:17;;;;;;;17.67;10.87;;;19.40;99.90;;;;;;5056087;28;20228;-65
2022/05/19 05:02:43;;;;;;;15.30;11.17;;;19.40;99.90;;;;;;5056146;28;20211;-64
2022/05/19 05:05:09;;;;;;;13.00;9.37;;;19.50;99.90;;;;;;5056257;28;20177;-64
2022/05/19 05:07:35;;;;;;;14.07;9.63;;;19.30;99.90;;;;;;5056293;28;20188;-63
2022/05/19 05:10:00;;;;;;;12.90;8.57;;;19.30;99.90;;;;;;5055559;28;20256;-64
2022/05/19 05:12:26;;;;;;;11.33;8.60;;;19.30;99.90;;;;;;5054127;28;20173;-64
2022/05/19 05:14:53;;;;;;;9.20;8.30;;;19.30;99.90;;;;;;5056218;28;20199;-64
2022/05/19 05:17:21;;;;;;;11.53;7.40;;;19.50;99.90;;;;;;5055621;28;20181;-64
2022/05/19 05:19:47;;;;;;;12.88;8.73;;;19.50;99.90;;;;;;5055990;28;20222;-65
2022/05/19 05:22:12;;;;;;;10.93;8.60;;;19.60;99.90;;;;;;5055996;28;20181;-64
2022/05/19 05:24:38;;;;;;;12.48;8.18;;;19.70;99.90;;;;;;5055153;28;20296;-66
2022/05/19 05:27:05;;;;;;;9.93;8.07;;;19.80;99.90;;;;;;5055721;28;20637;-65
2022/05/19 05:29:31;;;;;;;10.32;7.18;;;19.90;99.90;;;;;;5055463;28;20288;-64
2022/05/19 05:31:57;;;;;;;10.07;6.60;;;19.90;99.90;;;;;;5054850;28;20570;-66
2022/05/19 05:34:23;;;;;;;9.32;6.45;;;19.80;98.10;;;;;;5054900;28;20282;-65
2022/05/19 05:36:49;;;;;;;7.65;6.82;;;19.70;99.90;;;;;;5055540;28;20170;-65
2022/05/19 05:39:15;;;;;;;8.52;6.28;;;19.70;99.90;;;;;;5054481;28;20222;-64
2022/05/19 05:41:41;;;;;;;8.90;6.13;;;19.80;99.90;;;;;;5055234;28;20177;-64
2022/05/19 05:44:07;;;;;;;7.47;6.57;;;19.90;99.90;;;;;;5055030;28;20221;-64
2022/05/19 05:46:32;;;;;;;7.90;6.07;;;19.80;93.90;;;;;;5052625;28;20174;-65
2022/05/19 05:48:58;;;;;;;8.07;6.18;;;19.80;95.40;;;;;;5054728;28;20231;-64
2022/05/19 05:51:23;;;;;;;10.07;5.82;;;19.90;93.90;;;;;;5054787;28;20161;-65
2022/05/19 05:53:49;;;;;;;10.10;7.07;;;20.00;94.80;;;;;;5054319;28;20605;-66
2022/05/19 05:56:18;;;;;;;7.75;6.57;;;20.10;99.90;;;;;;5054534;28;20171;-65
2022/05/19 05:58:44;;;;;;;7.70;5.97;;;20.30;95.60;;;;;;5054974;28;21001;-65
2022/05/19 06:01:12;;;;;;;7.80;6.80;;;20.40;76.80;;;;;;5054620;28;20244;-65
2022/05/19 06:03:39;;;;;;;9.98;6.70;;;20.70;90.40;;;;;;5053621;28;20273;-66
2022/05/19 06:06:04;;;;;;;8.00;6.80;;;21.00;58.60;;;;;;5053746;28;20215;-65
2022/05/19 06:08:31;;;;;;;11.15;6.75;;;21.70;54.10;;;;;;5053818;28;20565;-65
2022/05/19 06:10:59;;;;;;;7.97;6.78;;;22.70;27.70;;;;;;5054604;28;20177;-65
2022/05/19 06:13:25;;;;;;;10.43;6.40;;;24.20;1.00;;;;;;5053983;28;20225;-65
2022/05/19 06:15:51;;;;;;;7.50;6.07;;;25.50;1.00;;;;;;5054814;28;20174;-66
2022/05/19 06:18:17;;;;;;;8.00;5.43;;;25.90;1.00;;;;;;5056643;28;20235;-65
2022/05/19 06:20:44;;;;;;;7.88;6.03;;;26.50;1.00;;;;;;5062591;28;20181;-67
2022/05/19 06:23:10;;;;;;;6.30;5.55;;;27.00;99.90;;;;;;5075476;28;20195;-67
2022/05/19 06:25:36;;;;;;;6.07;5.55;;;27.50;1.00;;;;;;5072951;28;20168;-67
2022/05/19 06:28:02;;;;;;;9.60;5.20;;;28.30;99.90;;;;;;5084141;28;20183;-68
2022/05/19 06:30:29;;;;;;;6.95;4.70;;;28.90;1.00;;;;;;5085752;28;20172;-68
2022/05/19 06:32:55;;;;;;;6.70;4.60;;;29.00;19.80;;;;;;5077279;28;20179;-66
2022/05/19 06:35:23;;;;;;;5.10;4.60;;;29.10;99.90;;;;;;5087230;28;20240;-65
2022/05/19 06:37:49;;;;;;;4.57;4.18;;;29.20;1.00;;;;;;5078221;28;20234;-66
2022/05/19 06:40:15;;;;;;;5.03;4.53;;;29.00;1.00;;;;;;5086331;28;20230;-67
2022/05/19 06:42:42;;;;;;;4.70;4.25;;;27.50;1.00;;;;;;5076408;28;20258;-67
2022/05/19 06:45:09;;;;;;;6.28;4.40;;;28.10;1.00;;;;;;5060511;28;20552;-66
2022/05/19 06:47:36;;;;;;;5.28;4.68;;;28.80;1.00;;;;;;5085389;28;20199;-67
2022/05/19 06:50:04;;;;;;;6.78;4.88;;;29.40;1.00;;;;;;5083715;28;20175;-66
2022/05/19 06:52:32;;;;;;;5.20;4.70;;;30.10;1.00;;;;;;5077724;28;20172;-66
2022/05/19 06:54:59;;;;;;;9.13;4.80;;;30.00;1.00;;;;;;5089229;28;20316;-67
2022/05/19 06:57:27;;;;;;;5.53;5.03;;;30.20;1.00;;;;;;5072975;28;20172;-67
2022/05/19 06:59:53;;;;;;;6.97;4.35;;;30.10;1.00;;;;;;5071614;28;20221;-67
2022/05/19 07:02:20;;;;;;;5.82;4.70;;;29.20;1.00;;;;;;5072871;28;20200;-67
2022/05/19 07:04:46;;;;;;;5.03;4.30;;;29.50;1.00;;;;;;5071656;28;20181;-66
2022/05/19 07:07:13;;;;;;;4.30;3.90;;;29.80;1.00;;;;;;5072679;28;20204;-67
2022/05/19 07:09:39;;;;;;;6.45;4.18;;;30.50;99.90;;;;;;5073511;28;20180;-68
2022/05/19 07:12:07;;;;;;;4.40;4.00;;;30.90;99.90;;;;;;5072635;28;20267;-67
2022/05/19 07:14:33;;;;;;;5.00;4.50;;;30.10;99.90;;;;;;5062527;28;20204;-67
2022/05/19 07:16:59;;;;;;;5.68;4.28;;;29.40;1.00;;;;;;5055569;28;20664;-68
2022/05/19 07:22:15;;;;;;;6.45;4.68;;;29.70;1.00;;;;;;5066400;28;20185;-67
2022/05/19 07:24:41;;;;;;;6.07;4.93;;;31.00;99.90;;;;;;5065279;28;20307;-68
2022/05/19 07:27:06;;;;;;;4.40;4.00;;;31.80;99.90;;;;;;5052838;28;20246;-67
2022/05/19 07:29:32;;;;;;;5.35;4.28;;;32.30;99.90;;;;;;5052869;28;20169;-67
2022/05/19 07:32:01;;;;;;;5.22;3.83;;;31.30;99.90;;;;;;5054146;28;20544;-68
2022/05/19 07:34:28;;;;;;;7.20;4.55;;;30.50;99.90;;;;;;5073114;28;20270;-68
2022/05/19 07:36:55;;;;;;;4.50;4.10;;;30.70;99.90;;;;;;5071249;28;20183;-68
2022/05/19 07:39:21;;;;;;;5.43;4.30;;;31.00;99.90;;;;;;5083173;28;20168;-67
2022/05/19 07:41:50;;;;;;;5.30;3.97;;;31.00;99.90;;;;;;5073853;28;20259;-68
2022/05/19 07:44:15;;;;;;;5.70;4.28;;;30.20;99.90;;;;;;5086127;28;20199;-67
2022/05/19 07:46:42;;;;;;;5.00;4.00;;;29.30;1.00;;;;;;5082296;28;20175;-67
2022/05/19 07:49:07;;;;;;;5.40;4.20;;;30.00;99.90;;;;;;5073219;28;20187;-69
2022/05/19 07:51:40;;;;;;;3.65;3.45;;;30.50;99.90;;;;;;5053101;28;20169;-67
2022/05/19 07:54:31;;;;;;;4.07;3.78;;;30.40;99.90;;;;;;5067629;28;20181;-69
2022/05/19 07:56:57;;;;;;;4.53;4.18;;;30.50;99.90;;;;;;5054419;28;20170;-68
2022/05/19 07:59:23;;;;;;;4.22;3.83;;;31.10;99.90;;;;;;5052037;28;20217;-68
2022/05/19 08:01:49;;;;;;;6.45;3.97;;;30.70;99.90;;;;;;5051743;28;20169;-67
2022/05/19 08:04:15;;;;;;;4.40;3.83;;;30.00;99.90;;;;;;5052082;28;20254;-68
2022/05/19 08:06:42;;;;;;;4.30;3.92;;;29.10;99.90;;;;;;5051749;28;20272;-67
2022/05/19 08:11:54;;;;;;;5.70;4.20;;;28.50;1.00;;;;;;5052433;28;20250;-67
2022/05/19 08:17:10;;;;;;;6.05;4.65;;;28.00;1.00;;;;;;5071257;28;20631;-66
2022/05/19 08:19:39;;;;;;;6.45;4.28;;;27.80;99.90;;;;;;5072075;28;20615;-67
2022/05/19 08:22:06;;;;;;;5.53;4.50;;;28.30;1.00;;;;;;5072079;28;20199;-66
2022/05/19 08:24:32;;;;;;;7.85;4.53;;;28.70;1.00;;;;;;5054726;28;20298;-66
2022/05/19 08:27:00;;;;;;;6.80;4.30;;;29.10;1.00;;;;;;5053784;28;20596;-66
2022/05/19 08:29:26;;;;;;;6.60;4.50;;;29.40;1.00;;;;;;5052477;28;20184;-67
2022/05/19 08:31:52;;;;;;;5.50;4.20;;;29.70;99.90;;;;;;5061397;28;20680;-66
2022/05/19 08:34:18;;;;;;;5.97;4.20;;;29.90;99.90;;;;;;5070205;28;20587;-65
2022/05/19 08:36:44;;;;;;;5.15;4.07;;;30.20;99.90;;;;;;5059385;28;20225;-66
2022/05/19 08:39:11;;;;;;;4.22;3.88;;;29.60;99.90;;;;;;5051942;28;20166;-66
2022/05/19 08:41:48;;;;;;;5.53;4.20;;;28.50;1.00;;;;;;5051795;28;20193;-66
2022/05/19 08:44:22;;;;;;;4.20;3.80;;;27.80;1.00;;;;;;5066593;28;20215;-67
2022/05/19 08:46:50;;;;;;;5.15;3.95;;;27.40;99.90;;;;;;5053952;28;20185;-66
2022/05/19 08:49:19;;;;;;;4.70;4.30;;;27.40;99.90;;;;;;5063152;28;20177;-67
2022/05/19 08:52:03;;;;;;;4.63;4.20;;;27.60;99.90;;;;;;5057487;28;20173;-66
2022/05/19 08:54:29;;;;;;;4.90;4.00;;;27.80;99.90;;;;;;5064276;28;20172;-66
2022/05/19 08:56:59;;;;;;;5.88;4.47;;;27.90;6.10;;;;;;5071578;28;20601;-67
2022/05/19 08:59:48;;;;;;;6.20;4.75;;;28.30;1.00;;;;;;5071605;28;20287;-66
2022/05/19 09:02:19;;;;;;;4.20;3.90;;;28.60;1.00;;;;;;5050999;28;20653;-68
2022/05/19 09:05:06;;;;;;;4.47;4.15;;;29.60;99.90;;;;;;5055108;28;20192;-67
2022/05/19 09:07:59;;;;;;;4.38;4.05;;;30.00;99.90;;;;;;5051913;28;20203;-67
2022/05/19 09:10:55;;;;;;;4.60;4.20;;;29.50;99.90;;;;;;5051483;28;20610;-66
2022/05/19 09:13:37;;;;;;;5.00;4.60;;;29.20;99.90;;;;;;5051306;28;20226;-66
2022/05/19 09:16:14;;;;;;;4.50;4.20;;;29.30;1.00;;;;;;5051302;28;20176;-65
2022/05/19 09:18:45;;;;;;;4.82;4.25;;;29.90;99.90;;;;;;5067492;28;20176;-66
2022/05/19 09:21:12;;;;;;;4.75;4.35;;;30.30;99.90;;;;;;5071424;28;20173;-67
2022/05/19 09:23:40;;;;;;;5.50;4.60;;;30.00;99.90;;;;;;5066750;28;20200;-67
2022/05/19 09:26:31;;;;;;;6.82;4.75;;;29.60;99.90;;;;;;5062898;28;20651;-66
2022/05/19 09:29:01;;;;;;;6.57;4.38;;;29.10;1.00;;;;;;5072821;28;20581;-65
2022/05/19 09:31:41;;;;;;;5.35;4.38;;;29.00;1.00;;;;;;5054121;28;20272;-66
2022/05/19 09:34:09;;;;;;;5.03;4.60;;;29.10;1.00;;;;;;5055364;28;20247;-66
2022/05/19 09:36:41;;;;;;;6.72;4.68;;;29.60;1.00;;;;;;5051425;28;20169;-67
2022/05/19 09:39:12;;;;;;;6.38;4.78;;;30.50;99.90;;;;;;5053415;28;20684;-67
2022/05/19 09:42:01;;;;;;;6.95;4.85;;;31.00;99.90;;;;;;5070034;28;20186;-67
2022/05/19 09:44:32;;;;;;;4.95;4.20;;;31.40;99.90;;;;;;5043688;28;20220;-67
2022/05/19 09:46:58;;;;;;;8.88;4.80;;;31.20;99.90;;;;;;5070901;28;20176;-67
2022/05/19 09:49:33;;;;;;;5.28;4.47;;;30.80;99.90;;;;;;5072308;28;20263;-67
2022/05/19 09:52:06;;;;;;;5.68;4.72;;;30.80;99.90;;;;;;5063192;28;20169;-67
2022/05/19 09:54:34;;;;;;;4.88;4.38;;;30.80;99.90;;;;;;5069745;28;20177;-67
2022/05/19 09:57:05;;;;;;;4.93;4.38;;;30.70;99.90;;;;;;5063252;28;20173;-68
2022/05/19 09:59:46;;;;;;;4.78;4.30;;;31.70;99.90;;;;;;5069104;28;20220;-68
2022/05/19 10:02:31;;;;;;;7.93;4.70;;;32.70;99.90;;;;;;5073871;28;20182;-68
2022/05/19 10:05:00;;;;;;;8.32;4.13;;;33.40;99.90;;;;;;5075063;28;20184;-68
2022/05/19 10:07:35;;;;;;;4.60;4.10;;;33.90;99.90;;;;;;5056631;28;20200;-68
2022/05/19 10:10:02;;;;;;;5.43;4.53;;;34.00;99.90;;;;;;5055273;28;20275;-68
2022/05/19 10:12:42;;;;;;;11.15;4.55;;;33.60;99.90;;;;;;5055188;28;20177;-67
2022/05/19 10:15:16;;;;;;;6.10;4.30;;;32.80;99.90;;;;;;5054632;28;20200;-67
2022/05/19 10:18:00;;;;;;;8.98;4.68;;;32.10;99.90;;;;;;5054884;28;20176;-68
2022/05/19 10:20:32;;;;;;;5.78;4.45;;;31.40;99.90;;;;;;5055266;28;20177;-68
2022/05/19 10:23:07;;;;;;;5.10;4.47;;;30.20;99.90;;;;;;5054342;28;20224;-67
2022/05/19 10:25:51;;;;;;;5.80;5.13;;;29.60;99.90;;;;;;5055080;28;20230;-68
2022/05/19 10:32:07;;;;;;;10.23;5.03;;;28.20;1.00;;;;;;5055016;28;20180;-68
2022/05/19 10:35:05;;;;;;;9.35;3.10;;;27.60;99.90;;;;;;5054971;28;20193;-67
2022/05/19 10:37:50;;;;;;;9.85;2.00;;;26.40;99.90;;;;;;5051862;28;20189;-66
2022/05/19 10:40:44;;;;;;;5.80;2.40;;;24.70;99.90;;;;;;5053775;28;20265;-67
2022/05/19 10:43:25;;;;;;;14.35;4.18;;;23.10;1.00;;;;;;5066275;28;20278;-67
2022/05/19 10:45:56;;;;;;;7.00;3.97;;;21.40;62.20;;;;;;5074507;28;20640;-67
2022/05/19 10:48:47;;;;;;;6.65;3.88;;;20.40;99.10;;;;;;5073938;28;20559;-68
2022/05/19 10:51:14;;;;;;;11.68;4.78;;;19.80;99.90;;;;;;5073125;28;20161;-67
2022/05/19 10:53:58;;;;;;;7.25;4.38;;;19.50;99.90;;;;;;5073573;28;20173;-66
2022/05/19 10:56:46;;;;;;;6.20;4.30;;;19.40;99.90;;;;;;5073854;28;20229;-68
2022/05/19 10:59:26;;;;;;;7.45;4.13;;;19.30;99.90;;;;;;5073247;28;20663;-67
2022/05/19 11:02:10;;;;;;;10.43;4.43;;;19.30;99.90;;;;;;5074127;28;20184;-67
2022/05/19 11:04:59;;;;;;;6.65;4.78;;;19.30;99.90;;;;;;5074190;28;20208;-67
2022/05/19 11:07:54;;;;;;;6.80;5.50;;;19.30;99.90;;;;;;5072626;28;20197;-67
2022/05/19 11:10:34;;;;;;;7.13;5.50;;;19.30;99.90;;;;;;5063983;28;20173;-66
2022/05/19 11:13:17;;;;;;;8.70;6.53;;;19.10;99.90;;;;;;5056361;28;20173;-66
2022/05/19 11:15:45;;;;;;;7.37;6.67;;;19.10;99.90;;;;;;5055666;28;20267;-65
2022/05/19 11:18:23;;;;;;;8.57;6.43;;;19.40;99.90;;;;;;5067916;28;20181;-66
2022/05/19 11:21:12;;;;;;;9.82;5.85;;;19.70;99.90;;;;;;5063329;28;20188;-67
2022/05/19 11:24:00;;;;;;;7.38;4.63;;;20.60;99.90;;;;;;5052866;28;20263;-66
2022/05/19 11:26:55;;;;;;;6.97;5.07;;;22.10;99.90;;;;;;5057087;28;20600;-68
2022/05/19 11:29:20;;;;;;;11.25;4.97;;;23.40;99.90;;;;;;5056648;28;20181;-67
2022/05/19 11:32:13;;;;;;;6.65;5.78;;;24.60;21.20;;;;;;5053331;28;20169;-67
2022/05/19 11:35:09;;;;;;;6.63;5.88;;;25.00;1.00;;;;;;5053167;28;20640;-67
2022/05/19 11:38:01;;;;;;;7.93;5.60;;;25.30;1.00;;;;;;5047557;28;20188;-65
2022/05/19 11:40:35;;;;;;;6.93;6.22;;;25.00;1.00;;;;;;5059758;28;20184;-66
2022/05/19 11:43:12;;;;;;;7.25;6.50;;;25.20;1.00;;;;;;5066778;28;20228;-67
2022/05/19 11:46:00;;;;;;;6.90;6.30;;;25.40;1.00;;;;;;5065705;28;20184;-67
2022/05/19 11:55:19;;;;;;;17.45;10.00;;;22.50;38.00;;;;;;5059746;28;20687;-67
2022/05/19 11:57:52;;;;;;;11.20;10.10;;;21.90;58.80;;;;;;5055063;28;20176;-66
2022/05/19 12:00:27;;;;;;;11.90;10.60;;;21.50;93.90;;;;;;5057476;28;20675;-66
2022/05/19 12:03:17;;;;;;;11.32;10.23;;;21.20;99.90;;;;;;5060447;28;20212;-66
2022/05/19 12:05:56;;;;;;;11.18;10.18;;;20.60;87.80;;;;;;5053264;28;20178;-66
2022/05/19 12:08:41;;;;;;;11.93;10.77;;;20.50;97.80;;;;;;5057604;28;20368;-66
2022/05/19 12:11:30;;;;;;;13.25;11.48;;;20.60;99.90;;;;;;5058173;28;20180;-67
2022/05/19 12:14:11;;;;;;;13.40;11.73;;;20.80;99.90;;;;;;5061412;28;20177;-67
2022/05/19 12:16:48;;;;;;;13.00;11.70;;;20.90;99.90;;;;;;5052471;28;20625;-66
2022/05/19 12:19:37;;;;;;;12.27;11.18;;;21.30;99.90;;;;;;5059597;28;20173;-67
2022/05/19 12:22:24;;;;;;;12.27;11.10;;;21.60;99.90;;;;;;5055012;28;20263;-67
2022/05/19 12:25:00;;;;;;;11.68;9.88;;;21.90;94.40;;;;;;5048266;28;20197;-67
2022/05/19 12:27:53;;;;;;;9.25;8.35;;;22.30;78.00;;;;;;5065181;28;20172;-67
2022/05/19 12:33:30;;;;;;;10.57;9.68;;;22.40;29.70;;;;;;5057495;28;20223;-67
2022/05/19 12:36:12;;;;;;;12.68;9.45;;;22.60;20.70;;;;;;5052339;28;20250;-67
2022/05/19 12:38:40;;;;;;;9.90;9.05;;;22.50;42.50;;;;;;5059865;28;20181;-66
2022/05/19 12:41:32;;;;;;;10.27;9.27;;;22.30;15.90;;;;;;5063091;28;20321;-66
2022/05/19 12:44:30;;;;;;;10.32;9.27;;;22.50;27.50;;;;;;5065601;28;20217;-67
2022/05/19 12:47:19;;;;;;;10.82;8.93;;;23.30;7.20;;;;;;5059281;28;20276;-67
2022/05/19 12:50:08;;;;;;;11.32;9.50;;;23.70;1.00;;;;;;5049995;28;20177;-67
2022/05/19 12:53:04;;;;;;;10.52;9.55;;;23.80;1.00;;;;;;5062601;28;20197;-67
2022/05/19 12:55:42;;;;;;;10.55;9.50;;;23.70;1.00;;;;;;5010816;28;20696;-66
2022/05/19 12:58:34;;;;;;;12.15;10.88;;;23.10;1.00;;;;;;5009320;28;20175;-67
2022/05/19 13:01:09;;;;;;;10.52;9.50;;;23.20;1.00;;;;;;4988643;28;20236;-66
2022/05/19 13:03:37;;;;;;;12.02;10.85;;;23.30;1.00;;;;;;5022643;28;20202;-66
2022/05/19 13:06:05;;;;;;;11.30;10.13;;;23.50;1.00;;;;;;5021026;28;20256;-67
2022/05/19 13:08:37;;;;;;;11.38;10.38;;;24.00;1.00;;;;;;5001380;28;20186;-66
2022/05/19 13:11:13;;;;;;;9.80;8.90;;;24.10;1.00;;;;;;5017825;28;20182;-65
2022/05/19 13:13:55;;;;;;;10.95;9.95;;;24.10;1.00;;;;;;5026539;28;20276;-67
2022/05/19 13:16:25;;;;;;;9.30;7.93;;;24.40;1.00;;;;;;5024514;28;20216;-68
2022/05/19 13:18:53;;;;;;;5.82;5.28;;;24.80;1.00;;;;;;5019300;28;20284;-67
2022/05/19 13:21:37;;;;;;;6.00;5.35;;;25.00;1.00;;;;;;5018249;28;20227;-67
2022/05/19 13:24:08;;;;;;;6.65;4.32;;;25.20;1.00;;;;;;5002257;28;20583;-67
2022/05/19 13:26:37;;;;;;;3.72;3.42;;;25.30;1.00;;;;;;5014839;28;20558;-66
2022/05/19 13:32:11;;;;;;;4.57;2.88;;;25.30;99.90;;;;;;5046512;28;20247;-65
2022/05/19 13:34:44;;;;;;;3.75;3.30;;;25.10;1.00;;;;;;5067597;28;20614;-66